Time;durP1;ratioP1;P1;durP2;ratioP2;P2;SDS_P1;SDS_P2;PMS_P1;PMS_P2;Temp;Humidity;BMP_temperature;BMP_pressure;BME280_temperature;BME280_humidity;BME280_pressure;Samples;Min_cycle;Max_cycle;Signal;HPM_P1;HPM_P2
2023/01/04 00:01:11;;;;;;;9.68;1.75;;;8.80;99.90;;;;;;5091957;28;20531;-62
2023/01/04 00:03:37;;;;;;;9.68;1.90;;;8.70;99.90;;;;;;5094922;28;20023;-62
2023/01/04 00:06:04;;;;;;;6.28;1.95;;;8.60;99.90;;;;;;5089819;28;20019;-62
2023/01/04 00:08:30;;;;;;;6.57;1.90;;;8.50;99.90;;;;;;5086721;28;20186;-62
2023/01/04 00:11:04;;;;;;;10.10;1.85;;;8.50;99.90;;;;;;5089283;28;20028;-62
2023/01/04 00:13:30;;;;;;;12.38;2.20;;;8.40;99.90;;;;;;5087095;28;20063;-62
2023/01/04 00:15:56;;;;;;;9.35;2.17;;;8.40;99.90;;;;;;5086880;28;20048;-62
2023/01/04 00:18:22;;;;;;;7.38;1.75;;;8.40;99.90;;;;;;5090019;28;20081;-62
2023/01/04 00:20:48;;;;;;;10.75;2.40;;;8.30;99.90;;;;;;5087338;28;20039;-62
2023/01/04 00:23:13;;;;;;;6.85;2.35;;;8.30;99.90;;;;;;5090583;28;20047;-62
2023/01/04 00:25:39;;;;;;;9.50;2.10;;;8.30;99.90;;;;;;5077767;28;20102;-64
2023/01/04 00:28:05;;;;;;;5.72;2.33;;;8.30;99.90;;;;;;5092898;28;20031;-62
2023/01/04 00:30:30;;;;;;;7.88;2.05;;;8.30;99.90;;;;;;5090740;28;20020;-62
2023/01/04 00:32:57;;;;;;;8.07;2.60;;;8.30;99.90;;;;;;5091176;28;20535;-62
2023/01/04 00:35:22;;;;;;;4.65;1.85;;;8.30;99.90;;;;;;5090635;28;20158;-62
2023/01/04 00:37:48;;;;;;;8.82;2.50;;;8.30;99.90;;;;;;5093571;28;20111;-62
2023/01/04 00:40:14;;;;;;;8.40;2.55;;;8.30;99.90;;;;;;5091800;28;20574;-62
2023/01/04 00:42:39;;;;;;;8.30;1.98;;;8.30;99.90;;;;;;5092002;28;20473;-62
2023/01/04 00:45:05;;;;;;;8.82;2.53;;;8.30;99.90;;;;;;5093224;28;20507;-62
2023/01/04 00:47:31;;;;;;;7.45;2.45;;;8.30;99.90;;;;;;5098738;28;20077;-62
2023/01/04 00:49:56;;;;;;;11.00;3.05;;;8.20;99.90;;;;;;5094936;28;20374;-63
2023/01/04 00:52:21;;;;;;;8.23;2.47;;;8.20;99.90;;;;;;5080625;28;20032;-63
2023/01/04 00:54:47;;;;;;;6.18;2.30;;;8.30;99.90;;;;;;5093425;28;20031;-63
2023/01/04 00:57:12;;;;;;;7.35;2.53;;;8.30;99.90;;;;;;5095212;28;20032;-63
2023/01/04 00:59:38;;;;;;;10.43;2.80;;;8.20;99.90;;;;;;5071893;28;20491;-63
2023/01/04 01:02:04;;;;;;;10.40;2.63;;;8.30;99.90;;;;;;5093841;28;20472;-63
2023/01/04 01:04:29;;;;;;;6.10;2.50;;;8.30;99.90;;;;;;5093018;28;20511;-63
2023/01/04 01:06:55;;;;;;;6.70;2.75;;;8.30;99.90;;;;;;5095704;27;20076;-63
2023/01/04 01:09:23;;;;;;;5.47;2.45;;;8.30;99.90;;;;;;5092872;28;20404;-63
2023/01/04 01:11:51;;;;;;;9.73;2.97;;;8.30;99.90;;;;;;5090651;28;20031;-63
2023/01/04 01:14:20;;;;;;;10.88;4.15;;;8.30;99.90;;;;;;5109679;27;20069;-63
2023/01/04 01:16:46;;;;;;;7.75;2.38;;;8.30;99.90;;;;;;5090740;28;20016;-63
2023/01/04 01:19:11;;;;;;;7.55;3.03;;;8.30;99.90;;;;;;5071276;28;20024;-63
2023/01/04 01:21:38;;;;;;;8.25;3.13;;;8.40;99.90;;;;;;5071987;28;20477;-63
2023/01/04 01:24:05;;;;;;;9.43;3.80;;;8.40;99.90;;;;;;5097157;28;20026;-63
2023/01/04 01:26:30;;;;;;;7.57;2.72;;;8.40;99.90;;;;;;5090056;27;20106;-63
2023/01/04 01:28:57;;;;;;;9.00;2.80;;;8.40;99.90;;;;;;5092487;28;20111;-63
2023/01/04 01:31:25;;;;;;;5.75;2.78;;;8.50;99.90;;;;;;5089730;28;20034;-63
2023/01/04 01:33:53;;;;;;;5.22;2.90;;;8.50;99.90;;;;;;5093071;28;20109;-63
2023/01/04 01:36:21;;;;;;;9.57;3.03;;;8.50;99.90;;;;;;5088324;28;20677;-65
2023/01/04 01:38:46;;;;;;;7.03;3.33;;;8.50;99.90;;;;;;5089408;28;20020;-63
2023/01/04 01:41:25;;;;;;;7.60;3.45;;;8.50;99.90;;;;;;5093137;28;20035;-63
2023/01/04 01:44:11;;;;;;;8.15;3.05;;;8.60;99.90;;;;;;5091506;28;20012;-62
2023/01/04 01:46:41;;;;;;;4.15;2.75;;;8.60;99.90;;;;;;5072622;28;20032;-63
2023/01/04 01:49:12;;;;;;;3.65;2.55;;;8.60;99.90;;;;;;5091894;28;20028;-63
2023/01/04 01:51:38;;;;;;;4.65;2.67;;;8.70;99.90;;;;;;5088663;28;20032;-63
2023/01/04 01:54:11;;;;;;;6.90;2.53;;;8.70;99.90;;;;;;5121561;27;20023;-63
2023/01/04 01:56:39;;;;;;;6.65;2.10;;;8.70;99.90;;;;;;5096321;27;20031;-63
2023/01/04 01:59:06;;;;;;;4.20;2.10;;;8.80;99.90;;;;;;5091863;28;20042;-63
2023/01/04 02:01:32;;;;;;;7.18;2.63;;;8.80;99.90;;;;;;5094587;28;20028;-62
2023/01/04 02:03:58;;;;;;;5.05;2.25;;;8.80;99.90;;;;;;5070775;28;20016;-64
2023/01/04 02:06:31;;;;;;;3.05;2.08;;;8.80;99.90;;;;;;5075155;28;20374;-63
2023/01/04 02:08:58;;;;;;;3.38;1.67;;;8.90;99.90;;;;;;5092059;28;20044;-63
2023/01/04 02:11:25;;;;;;;5.97;3.25;;;8.90;99.90;;;;;;5093596;28;20084;-63
2023/01/04 02:16:55;;;;;;;3.45;1.70;;;8.90;99.90;;;;;;5091169;28;20035;-63
2023/01/04 02:19:49;;;;;;;4.70;2.20;;;9.00;99.90;;;;;;5091285;28;20030;-63
2023/01/04 02:22:47;;;;;;;4.93;2.63;;;8.90;99.90;;;;;;5093035;28;20504;-63
2023/01/04 02:25:34;;;;;;;4.28;2.25;;;8.90;99.90;;;;;;5088815;28;20099;-62
2023/01/04 02:28:29;;;;;;;6.47;2.28;;;9.00;99.90;;;;;;5073936;28;20023;-63
2023/01/04 02:31:00;;;;;;;3.30;2.03;;;9.00;99.90;;;;;;5091533;28;20020;-63
2023/01/04 02:33:50;;;;;;;3.72;1.98;;;9.00;99.90;;;;;;5091699;28;20020;-62
2023/01/04 02:36:22;;;;;;;3.13;1.55;;;9.00;99.90;;;;;;5106665;27;20019;-62
2023/01/04 02:38:53;;;;;;;4.60;2.13;;;9.00;99.90;;;;;;5071668;28;20012;-63
2023/01/04 02:41:50;;;;;;;5.30;2.28;;;9.00;99.90;;;;;;5090818;28;20019;-63
2023/01/04 02:44:54;;;;;;;4.32;1.85;;;9.00;99.90;;;;;;5066835;28;20458;-63
2023/01/04 02:50:32;;;;;;;4.35;1.70;;;9.10;99.90;;;;;;5091456;28;20031;-63
2023/01/04 02:53:06;;;;;;;5.60;1.80;;;9.10;99.90;;;;;;5072537;28;20485;-63
2023/01/04 02:56:14;;;;;;;2.28;1.45;;;9.10;99.90;;;;;;5088303;28;20043;-63
2023/01/04 02:58:58;;;;;;;3.88;1.50;;;9.10;99.90;;;;;;5090355;28;20436;-63
2023/01/04 03:07:16;;;;;;;2.28;1.45;;;9.20;99.90;;;;;;5090777;28;20090;-63
2023/01/04 03:09:46;;;;;;;2.00;1.45;;;9.30;99.90;;;;;;5104878;27;20032;-63
2023/01/04 03:12:30;;;;;;;3.88;1.92;;;9.30;99.90;;;;;;5088032;28;20031;-63
2023/01/04 03:15:21;;;;;;;3.00;1.67;;;9.30;99.90;;;;;;5088830;28;20042;-63
2023/01/04 03:17:54;;;;;;;2.15;1.60;;;9.40;99.90;;;;;;5093830;28;20019;-63
2023/01/04 03:20:21;;;;;;;3.80;1.67;;;9.40;99.90;;;;;;5089255;28;20063;-63
2023/01/04 03:37:19;;;;;;;2.83;1.50;;;9.50;99.90;;;;;;5088790;28;20384;-63
2023/01/04 03:48:57;;;;;;;;;;;9.70;99.90;;;;;;5090551;28;20507;-63
2023/01/04 03:51:28;;;;;;;3.88;2.10;;;9.60;99.90;;;;;;5081122;28;19907;-63
2023/01/04 03:54:16;;;;;;;3.58;2.38;;;9.70;99.90;;;;;;5068708;28;20032;-63
2023/01/04 03:56:43;;;;;;;3.83;2.00;;;9.80;99.90;;;;;;5092995;28;20024;-63
2023/01/04 03:59:11;;;;;;;4.07;2.33;;;9.80;99.90;;;;;;5089555;28;20081;-63
2023/01/04 04:01:37;;;;;;;2.55;1.90;;;9.80;99.90;;;;;;5093397;28;20095;-63
2023/01/04 04:09:31;;;;;;;3.55;2.75;;;9.90;99.90;;;;;;5091517;28;20043;-63
2023/01/04 04:11:57;;;;;;;2.95;2.65;;;10.00;99.90;;;;;;5074750;28;20024;-63
2023/01/04 04:14:23;;;;;;;4.97;2.50;;;10.00;99.90;;;;;;5096987;28;20024;-63
2023/01/04 04:16:48;;;;;;;3.97;2.42;;;10.10;99.90;;;;;;5090861;28;20106;-63
2023/01/04 04:19:14;;;;;;;3.80;2.63;;;10.10;99.90;;;;;;5095426;28;20023;-62
2023/01/04 04:21:40;;;;;;;4.60;2.60;;;10.20;99.90;;;;;;5090826;28;20032;-63
2023/01/04 04:24:06;;;;;;;3.60;2.45;;;10.20;99.90;;;;;;5090906;28;20147;-62
2023/01/04 04:26:31;;;;;;;6.13;2.60;;;10.20;99.90;;;;;;5094001;28;20024;-63
2023/01/04 04:28:57;;;;;;;3.47;2.55;;;10.30;99.90;;;;;;5093292;28;20488;-63
2023/01/04 04:31:22;;;;;;;6.43;2.95;;;10.30;99.90;;;;;;5091212;28;20107;-63
2023/01/04 04:33:48;;;;;;;3.38;2.67;;;10.40;99.90;;;;;;5093390;28;20478;-63
2023/01/04 04:36:13;;;;;;;7.35;3.20;;;10.40;99.90;;;;;;5091159;28;20043;-62
2023/01/04 04:38:39;;;;;;;2.42;2.08;;;10.40;99.90;;;;;;5074203;28;20036;-63
2023/01/04 04:43:51;;;;;;;4.22;2.15;;;10.40;99.90;;;;;;5093970;28;20019;-63
2023/01/04 04:46:17;;;;;;;3.38;2.17;;;10.40;99.90;;;;;;5090442;28;20032;-63
2023/01/04 04:48:43;;;;;;;4.43;2.30;;;10.40;99.90;;;;;;5090965;28;20069;-63
2023/01/04 04:51:08;;;;;;;4.18;2.78;;;10.40;99.90;;;;;;5074626;28;20409;-62
2023/01/04 04:53:34;;;;;;;3.38;2.53;;;10.50;99.90;;;;;;5097089;28;20036;-63
2023/01/04 04:55:59;;;;;;;3.08;2.40;;;10.50;99.90;;;;;;5093079;28;20016;-63
2023/01/04 04:58:25;;;;;;;5.55;2.50;;;10.50;99.90;;;;;;5092946;28;20028;-62
2023/01/04 05:00:50;;;;;;;5.57;2.42;;;10.50;99.90;;;;;;5093360;28;20031;-63
2023/01/04 05:03:16;;;;;;;5.22;2.13;;;10.50;99.90;;;;;;5092793;28;20515;-62
2023/01/04 05:05:41;;;;;;;5.45;2.75;;;10.50;99.90;;;;;;5091022;28;20020;-62
2023/01/04 05:08:07;;;;;;;3.15;2.50;;;10.50;99.90;;;;;;5100901;28;20354;-63
2023/01/04 05:10:33;;;;;;;4.75;2.33;;;10.60;99.90;;;;;;5088968;28;20028;-62
2023/01/04 05:12:58;;;;;;;4.68;2.22;;;10.60;99.90;;;;;;5089788;28;20016;-62
2023/01/04 05:15:35;;;;;;;3.50;2.40;;;10.60;99.90;;;;;;5095928;28;20024;-63
2023/01/04 05:18:01;;;;;;;5.30;2.30;;;10.60;99.90;;;;;;5090077;28;20085;-62
2023/01/04 05:20:26;;;;;;;4.97;2.50;;;10.60;99.90;;;;;;5089931;28;20016;-63
2023/01/04 05:22:52;;;;;;;3.92;3.00;;;10.60;99.90;;;;;;5092310;28;20023;-63
2023/01/04 05:25:18;;;;;;;3.42;2.80;;;10.60;99.90;;;;;;5090745;28;20073;-63
2023/01/04 05:27:43;;;;;;;5.07;3.00;;;10.60;99.90;;;;;;5091248;28;20493;-63
2023/01/04 05:32:55;;;;;;;5.78;2.58;;;10.60;99.90;;;;;;5090441;28;20062;-62
2023/01/04 05:35:21;;;;;;;5.03;2.88;;;10.60;99.90;;;;;;5089723;28;20028;-63
2023/01/04 05:37:46;;;;;;;6.03;2.50;;;10.60;99.90;;;;;;5089322;28;20501;-62
2023/01/04 05:40:12;;;;;;;3.13;2.80;;;10.60;99.90;;;;;;5089775;28;20024;-62
2023/01/04 05:42:38;;;;;;;5.47;2.42;;;10.60;99.90;;;;;;5087717;28;20115;-63
2023/01/04 05:45:04;;;;;;;5.68;2.85;;;10.70;99.90;;;;;;5071026;28;20390;-63
2023/01/04 05:47:29;;;;;;;6.70;2.60;;;10.70;99.90;;;;;;5091601;28;20020;-63
2023/01/04 05:49:55;;;;;;;4.15;2.67;;;10.70;99.90;;;;;;5089826;28;20031;-63
2023/01/04 05:52:21;;;;;;;5.82;2.35;;;10.70;99.90;;;;;;5089018;28;20131;-63
2023/01/04 05:54:46;;;;;;;2.92;2.05;;;10.70;99.90;;;;;;5089019;28;20315;-63
2023/01/04 05:57:12;;;;;;;3.75;2.40;;;10.70;99.90;;;;;;5094696;28;20384;-63
2023/01/04 05:59:38;;;;;;;3.67;2.40;;;10.70;99.90;;;;;;5091601;28;20397;-63
2023/01/04 06:02:04;;;;;;;6.38;2.28;;;10.70;99.90;;;;;;5095673;28;20024;-63
2023/01/04 06:04:30;;;;;;;4.32;2.20;;;10.70;99.90;;;;;;5089366;28;20487;-62
2023/01/04 06:06:55;;;;;;;4.38;2.50;;;10.70;99.90;;;;;;5073621;28;20028;-63
2023/01/04 06:09:21;;;;;;;4.43;1.95;;;10.80;99.90;;;;;;5094521;28;20069;-63
2023/01/04 06:11:47;;;;;;;5.43;2.28;;;10.70;99.90;;;;;;5093215;28;20370;-63
2023/01/04 06:14:12;;;;;;;4.75;1.80;;;10.70;99.90;;;;;;5089066;28;20559;-63
2023/01/04 06:16:38;;;;;;;4.28;2.10;;;10.80;99.90;;;;;;5091115;28;20503;-63
2023/01/04 06:19:03;;;;;;;3.05;1.90;;;10.80;99.90;;;;;;5088694;28;20027;-63
2023/01/04 06:21:29;;;;;;;3.60;2.10;;;10.80;99.90;;;;;;5077581;28;20026;-63
2023/01/04 06:23:54;;;;;;;2.35;1.70;;;10.80;99.90;;;;;;5088656;28;20028;-63
2023/01/04 06:26:20;;;;;;;4.85;2.22;;;10.80;99.90;;;;;;5088584;28;20059;-63
2023/01/04 06:28:46;;;;;;;3.85;2.40;;;10.90;99.90;;;;;;5088435;28;20058;-63
2023/01/04 06:31:12;;;;;;;4.28;2.50;;;10.90;99.90;;;;;;5088450;28;20077;-63
2023/01/04 06:33:38;;;;;;;3.38;2.10;;;10.90;99.90;;;;;;5104251;28;20036;-63
2023/01/04 06:36:04;;;;;;;2.83;1.95;;;10.90;99.90;;;;;;5089917;28;20097;-63
2023/01/04 06:38:31;;;;;;;7.63;2.13;;;10.90;99.90;;;;;;5102162;28;20105;-63
2023/01/04 06:40:56;;;;;;;2.90;2.05;;;10.90;99.90;;;;;;5109488;28;20011;-63
2023/01/04 06:43:22;;;;;;;3.47;1.88;;;10.90;99.90;;;;;;5111788;28;20077;-63
2023/01/04 06:45:48;;;;;;;2.13;1.92;;;10.90;99.90;;;;;;5110978;27;20098;-63
2023/01/04 06:48:13;;;;;;;2.72;2.08;;;11.00;99.90;;;;;;5109303;28;20110;-63
2023/01/04 06:50:39;;;;;;;4.20;2.13;;;11.00;99.90;;;;;;5105080;28;20103;-63
2023/01/04 06:53:04;;;;;;;3.47;1.63;;;11.00;99.90;;;;;;5095317;28;20020;-63
2023/01/04 06:55:30;;;;;;;3.67;2.42;;;11.00;99.90;;;;;;5104846;28;20017;-63
2023/01/04 06:57:56;;;;;;;4.50;1.90;;;11.00;99.90;;;;;;5105452;28;20024;-63
2023/01/04 07:00:22;;;;;;;3.15;2.25;;;11.00;99.90;;;;;;5108276;28;20023;-63
2023/01/04 07:02:47;;;;;;;5.43;2.08;;;11.00;99.90;;;;;;5090617;28;20412;-63
2023/01/04 07:05:13;;;;;;;3.30;1.80;;;11.00;99.90;;;;;;5102838;28;20023;-63
2023/01/04 07:07:39;;;;;;;2.35;1.50;;;11.10;99.90;;;;;;5093302;28;20055;-63
2023/01/04 07:10:06;;;;;;;2.92;1.65;;;11.10;99.90;;;;;;5097768;28;20419;-63
2023/01/04 07:12:32;;;;;;;4.63;1.65;;;11.10;99.90;;;;;;5097571;28;20027;-63
2023/01/04 07:14:57;;;;;;;3.03;1.80;;;11.10;99.90;;;;;;5096616;28;20054;-63
2023/01/04 07:17:23;;;;;;;5.00;1.50;;;11.10;99.90;;;;;;5091570;28;20035;-63
2023/01/04 07:19:48;;;;;;;3.95;1.63;;;11.10;99.90;;;;;;5091352;28;20066;-63
2023/01/04 07:22:15;;;;;;;3.70;1.80;;;11.10;99.90;;;;;;5094816;28;20032;-63
2023/01/04 07:24:41;;;;;;;3.08;2.13;;;11.10;99.90;;;;;;5097035;28;20065;-63
2023/01/04 07:27:11;;;;;;;6.53;1.92;;;11.10;99.90;;;;;;5121997;27;20103;-63
2023/01/04 07:29:37;;;;;;;3.00;2.03;;;11.10;99.90;;;;;;5105213;28;20114;-63
2023/01/04 07:32:03;;;;;;;4.95;1.88;;;11.10;99.90;;;;;;5089638;28;20066;-63
2023/01/04 07:34:29;;;;;;;4.13;1.88;;;11.10;99.90;;;;;;5090193;28;20055;-63
2023/01/04 07:36:54;;;;;;;7.30;2.30;;;11.10;99.90;;;;;;5100701;28;20067;-63
2023/01/04 07:39:20;;;;;;;7.45;2.45;;;11.10;99.90;;;;;;5102928;28;20020;-63
2023/01/04 07:41:47;;;;;;;6.38;2.50;;;11.10;99.90;;;;;;5094433;28;20011;-63
2023/01/04 07:44:13;;;;;;;3.30;2.33;;;11.10;99.90;;;;;;5095654;28;20067;-63
2023/01/04 07:46:40;;;;;;;4.10;2.75;;;11.10;99.90;;;;;;5104191;28;20056;-63
2023/01/04 07:49:06;;;;;;;5.85;2.90;;;11.10;99.90;;;;;;5098453;28;20030;-63
2023/01/04 07:51:32;;;;;;;5.07;2.58;;;11.10;99.90;;;;;;5101592;28;20042;-63
2023/01/04 07:53:58;;;;;;;4.85;2.80;;;11.10;99.90;;;;;;5095775;28;20114;-63
2023/01/04 07:56:23;;;;;;;3.88;2.25;;;11.10;99.90;;;;;;5090588;28;20019;-63
2023/01/04 07:58:49;;;;;;;8.35;2.92;;;11.10;99.90;;;;;;5095531;28;20043;-63
2023/01/04 08:01:17;;;;;;;4.50;3.22;;;11.20;99.90;;;;;;5105334;28;20049;-63
2023/01/04 08:03:46;;;;;;;6.78;2.78;;;11.20;99.90;;;;;;5110629;28;20028;-63
2023/01/04 08:06:13;;;;;;;9.10;2.88;;;11.20;99.90;;;;;;5107375;28;20374;-63
2023/01/04 08:08:39;;;;;;;6.32;2.67;;;11.20;99.90;;;;;;5100688;28;20044;-63
2023/01/04 08:11:07;;;;;;;3.85;2.40;;;11.20;99.90;;;;;;5094874;28;20035;-63
2023/01/04 08:13:33;;;;;;;5.65;2.13;;;11.30;99.90;;;;;;5091145;28;20016;-63
2023/01/04 08:15:59;;;;;;;4.55;2.15;;;11.30;99.90;;;;;;5094029;28;20400;-63
2023/01/04 08:18:24;;;;;;;3.28;1.95;;;11.40;99.90;;;;;;5093131;28;20047;-63
2023/01/04 08:20:59;;;;;;;2.10;1.63;;;11.40;99.90;;;;;;5092585;28;20052;-63
2023/01/04 08:23:25;;;;;;;3.22;1.45;;;11.40;99.90;;;;;;5099169;28;20027;-63
2023/01/04 08:25:50;;;;;;;4.15;1.55;;;11.40;99.90;;;;;;5106012;28;20027;-63
2023/01/04 08:28:16;;;;;;;4.65;1.50;;;11.50;99.90;;;;;;5100150;28;20039;-63
2023/01/04 08:30:41;;;;;;;3.70;1.50;;;11.50;99.90;;;;;;5109513;28;20019;-63
2023/01/04 08:33:16;;;;;;;7.28;1.50;;;11.40;99.90;;;;;;5105112;28;20030;-63
2023/01/04 08:35:41;;;;;;;3.10;1.40;;;11.50;99.90;;;;;;5098153;28;20031;-63
2023/01/04 08:38:07;;;;;;;4.35;1.40;;;11.50;99.90;;;;;;5102731;28;20488;-63
2023/01/04 08:40:32;;;;;;;4.68;1.45;;;11.50;99.90;;;;;;5099618;28;20023;-63
2023/01/04 08:42:58;;;;;;;6.45;2.10;;;11.50;99.90;;;;;;5102093;28;20380;-63
2023/01/04 08:45:23;;;;;;;2.25;1.20;;;11.50;99.90;;;;;;5100869;28;20036;-63
2023/01/04 08:47:49;;;;;;;4.18;1.85;;;11.50;99.90;;;;;;5107667;28;20035;-63
2023/01/04 08:50:15;;;;;;;2.95;1.50;;;11.50;99.90;;;;;;5075244;28;20024;-63
2023/01/04 08:52:41;;;;;;;4.50;1.60;;;11.50;99.90;;;;;;5109922;28;20027;-63
2023/01/04 08:55:08;;;;;;;3.50;1.77;;;11.50;99.90;;;;;;5081582;28;20480;-65
2023/01/04 08:57:34;;;;;;;3.20;1.88;;;11.60;99.90;;;;;;5128221;27;20027;-64
2023/01/04 08:59:59;;;;;;;3.58;1.70;;;11.60;99.90;;;;;;5107713;27;20089;-63
2023/01/04 09:02:26;;;;;;;4.85;1.40;;;11.60;99.90;;;;;;5119236;27;20415;-63
2023/01/04 09:04:58;;;;;;;4.40;1.50;;;11.60;99.90;;;;;;5106821;27;20020;-63
2023/01/04 09:07:30;;;;;;;5.45;1.88;;;11.70;99.90;;;;;;5104659;28;20557;-63
2023/01/04 09:09:56;;;;;;;4.70;1.75;;;11.70;99.90;;;;;;5102633;28;20075;-63
2023/01/04 09:12:22;;;;;;;4.57;2.35;;;11.70;99.90;;;;;;5104659;28;20503;-63
2023/01/04 09:14:47;;;;;;;5.63;2.05;;;11.80;99.90;;;;;;5104911;28;20020;-63
2023/01/04 09:17:13;;;;;;;4.00;2.08;;;11.70;99.90;;;;;;5109338;28;20034;-63
2023/01/04 09:19:38;;;;;;;4.35;2.25;;;11.80;99.90;;;;;;5106623;28;20298;-63
2023/01/04 09:22:04;;;;;;;6.65;2.10;;;11.80;99.90;;;;;;5088373;28;20130;-63
2023/01/04 09:24:32;;;;;;;5.30;2.20;;;11.80;99.90;;;;;;5105689;28;20020;-63
2023/01/04 09:26:58;;;;;;;7.82;2.50;;;11.80;99.90;;;;;;5108283;28;20115;-63
2023/01/04 09:29:24;;;;;;;4.85;2.38;;;11.80;99.90;;;;;;5086375;28;20119;-63
2023/01/04 09:31:50;;;;;;;5.03;2.63;;;11.80;99.90;;;;;;5106666;28;20381;-63
2023/01/04 09:34:16;;;;;;;7.28;3.17;;;11.70;99.90;;;;;;5117152;27;20019;-63
2023/01/04 09:36:43;;;;;;;7.05;2.42;;;11.80;99.90;;;;;;5105215;28;20038;-63
2023/01/04 09:39:08;;;;;;;9.63;2.85;;;11.80;99.90;;;;;;5106561;28;20027;-63
2023/01/04 09:41:37;;;;;;;5.65;2.17;;;11.80;99.90;;;;;;5104918;28;20042;-63
2023/01/04 09:44:09;;;;;;;3.17;2.20;;;11.80;99.90;;;;;;5105224;28;20020;-63
2023/01/04 09:46:59;;;;;;;3.60;2.30;;;11.70;99.90;;;;;;5094871;28;20078;-63
2023/01/04 09:49:31;;;;;;;4.65;2.30;;;11.80;99.90;;;;;;5092470;28;20062;-63
2023/01/04 09:52:05;;;;;;;5.72;2.10;;;11.70;99.90;;;;;;5102896;28;20034;-63
2023/01/04 09:54:40;;;;;;;7.03;2.35;;;11.80;99.90;;;;;;5100508;28;20020;-63
2023/01/04 09:57:13;;;;;;;3.63;1.92;;;11.80;99.90;;;;;;5103419;28;20016;-63
2023/01/04 09:59:38;;;;;;;4.50;2.30;;;11.80;99.90;;;;;;5090911;28;20034;-64
2023/01/04 10:02:11;;;;;;;3.97;2.30;;;11.80;99.90;;;;;;5108104;28;20032;-63
2023/01/04 10:04:40;;;;;;;2.58;1.90;;;11.80;99.90;;;;;;5098141;28;20028;-63
2023/01/04 10:07:38;;;;;;;3.67;1.83;;;11.80;99.90;;;;;;5099092;28;20112;-64
2023/01/04 10:10:08;;;;;;;4.18;2.00;;;11.80;99.90;;;;;;5088960;28;20085;-64
2023/01/04 10:12:56;;;;;;;3.95;2.10;;;11.80;99.90;;;;;;5100225;28;20143;-64
2023/01/04 10:15:38;;;;;;;2.38;1.52;;;11.80;99.90;;;;;;5100140;28;20016;-64
2023/01/04 10:18:27;;;;;;;5.18;2.20;;;11.80;99.90;;;;;;5100506;28;20024;-64
2023/01/04 10:21:21;;;;;;;4.20;1.90;;;11.80;99.90;;;;;;5100367;28;20036;-64
2023/01/04 10:24:11;;;;;;;3.95;2.20;;;11.80;99.90;;;;;;5105118;28;20070;-64
2023/01/04 10:26:45;;;;;;;4.57;2.47;;;11.80;99.90;;;;;;5094908;28;20124;-64
2023/01/04 10:29:51;;;;;;;5.68;2.50;;;11.80;99.90;;;;;;5104288;28;20032;-64
2023/01/04 10:32:28;;;;;;;3.75;2.70;;;11.80;99.90;;;;;;5105768;28;20030;-64
2023/01/04 10:34:53;;;;;;;5.05;2.72;;;11.80;99.90;;;;;;5100213;28;20028;-64
2023/01/04 10:37:39;;;;;;;3.42;2.45;;;11.80;99.90;;;;;;5082048;28;20070;-64
2023/01/04 10:40:13;;;;;;;3.63;2.40;;;11.80;99.90;;;;;;5091372;28;20123;-64
2023/01/04 10:43:03;;;;;;;4.80;2.47;;;11.90;99.90;;;;;;5073809;28;20020;-64
2023/01/04 10:45:50;;;;;;;2.88;2.58;;;11.80;99.90;;;;;;5100607;28;20023;-64
2023/01/04 10:48:49;;;;;;;2.97;2.53;;;11.80;99.90;;;;;;5110867;28;20072;-64
2023/01/04 10:51:27;;;;;;;2.30;2.10;;;11.80;99.90;;;;;;5093826;28;20020;-64
2023/01/04 10:53:58;;;;;;;4.05;2.30;;;11.90;99.90;;;;;;5091344;28;20028;-65
2023/01/04 10:56:44;;;;;;;3.05;2.20;;;11.80;99.90;;;;;;5096458;28;20020;-64
2023/01/04 10:59:35;;;;;;;3.92;2.15;;;11.90;99.90;;;;;;5098728;27;20492;-64
2023/01/04 11:02:09;;;;;;;4.63;2.13;;;11.90;99.90;;;;;;5105601;28;20024;-64
2023/01/04 11:04:41;;;;;;;3.25;1.98;;;11.90;99.90;;;;;;5099207;28;20522;-64
2023/01/04 11:07:14;;;;;;;5.28;2.40;;;11.90;99.90;;;;;;5104516;28;20027;-64
2023/01/04 11:09:51;;;;;;;3.40;2.35;;;11.90;99.90;;;;;;5099203;28;20439;-64
2023/01/04 11:12:18;;;;;;;3.50;2.28;;;11.90;99.90;;;;;;5109966;28;20115;-63
2023/01/04 11:14:44;;;;;;;2.95;2.47;;;11.90;99.90;;;;;;5105477;28;20537;-63
2023/01/04 11:17:10;;;;;;;3.25;1.88;;;11.90;99.90;;;;;;5104193;28;20081;-64
2023/01/04 11:19:36;;;;;;;2.50;1.52;;;11.90;99.90;;;;;;5089095;28;20382;-64
2023/01/04 11:22:20;;;;;;;3.10;1.80;;;12.00;99.90;;;;;;5092296;28;20031;-64
2023/01/04 11:24:50;;;;;;;2.75;2.03;;;12.00;99.90;;;;;;5086370;28;20023;-64
2023/01/04 11:27:24;;;;;;;3.85;2.35;;;12.00;99.90;;;;;;5098792;28;20027;-64
2023/01/04 11:30:16;;;;;;;3.47;1.98;;;12.00;99.90;;;;;;5096939;28;20060;-64
2023/01/04 11:32:45;;;;;;;4.43;2.20;;;12.00;99.90;;;;;;5092485;28;20023;-64
2023/01/04 11:35:10;;;;;;;2.60;1.75;;;12.00;99.90;;;;;;5098161;28;20024;-64
2023/01/04 11:37:38;;;;;;;2.10;1.85;;;12.00;99.90;;;;;;5110823;28;20058;-64
2023/01/04 11:40:16;;;;;;;2.88;1.60;;;12.00;99.90;;;;;;5098567;28;20071;-64
2023/01/04 11:42:42;;;;;;;4.38;2.05;;;12.10;99.90;;;;;;5093752;28;20030;-64
2023/01/04 11:45:25;;;;;;;2.75;2.08;;;12.10;99.90;;;;;;5098315;28;20186;-64
2023/01/04 11:47:56;;;;;;;2.25;1.80;;;12.10;99.90;;;;;;5103648;28;20082;-64
2023/01/04 11:50:42;;;;;;;2.35;1.70;;;12.10;99.90;;;;;;5107396;28;20480;-64
2023/01/04 11:53:30;;;;;;;3.88;2.20;;;12.10;99.90;;;;;;5081106;28;20020;-64
2023/01/04 11:56:18;;;;;;;1.80;1.13;;;12.10;99.90;;;;;;5100992;28;20370;-64
2023/01/04 11:59:11;;;;;;;1.73;1.02;;;12.10;99.90;;;;;;5104650;28;20087;-64
2023/01/04 12:01:39;;;;;;;2.50;1.15;;;12.10;99.90;;;;;;5104428;28;20024;-64
2023/01/04 12:04:15;;;;;;;1.48;1.20;;;12.10;99.90;;;;;;5107612;28;20043;-64
2023/01/04 12:07:01;;;;;;;1.35;1.25;;;12.10;99.90;;;;;;5099881;28;20299;-64
2023/01/04 12:09:29;;;;;;;1.52;1.20;;;12.10;99.90;;;;;;5099140;28;20035;-64
2023/01/04 12:11:57;;;;;;;2.03;1.80;;;12.10;99.90;;;;;;5108377;28;20118;-64
2023/01/04 12:14:31;;;;;;;1.65;1.38;;;12.20;99.90;;;;;;5109527;28;20027;-64
2023/01/04 12:17:09;;;;;;;2.85;1.73;;;12.20;99.90;;;;;;5090925;28;20051;-64
2023/01/04 12:19:35;;;;;;;2.00;1.60;;;12.30;99.90;;;;;;5116775;27;20369;-64
2023/01/04 12:22:02;;;;;;;1.92;1.30;;;12.30;99.90;;;;;;5093457;28;20461;-64
2023/01/04 12:24:31;;;;;;;2.30;1.38;;;12.40;99.90;;;;;;5086167;28;20548;-64
2023/01/04 12:26:58;;;;;;;3.93;1.67;;;12.40;99.90;;;;;;5111551;28;20488;-64
2023/01/04 12:29:24;;;;;;;2.58;1.65;;;12.40;99.90;;;;;;5108239;28;21155;-64
2023/01/04 12:31:51;;;;;;;1.98;1.17;;;12.50;99.90;;;;;;5110454;28;20103;-63
2023/01/04 12:34:24;;;;;;;3.13;1.63;;;12.50;99.90;;;;;;5111087;28;20016;-64
2023/01/04 12:36:50;;;;;;;3.33;1.33;;;12.60;99.90;;;;;;5112712;28;20015;-64
2023/01/04 12:39:15;;;;;;;2.80;1.52;;;12.60;99.90;;;;;;5110929;28;20380;-64
2023/01/04 12:41:42;;;;;;;3.60;1.50;;;12.70;99.90;;;;;;5110066;28;20339;-64
2023/01/04 12:44:35;;;;;;;2.85;1.60;;;12.80;99.90;;;;;;5110004;27;20012;-64
2023/01/04 12:49:58;;;;;;;2.92;1.77;;;12.80;99.90;;;;;;5113546;27;20038;-65
2023/01/04 12:52:24;;;;;;;3.35;1.83;;;12.90;99.90;;;;;;5121118;27;20027;-64
2023/01/04 12:54:50;;;;;;;1.98;1.35;;;12.90;99.90;;;;;;5134353;27;20035;-63
2023/01/04 12:57:16;;;;;;;5.18;1.60;;;12.90;99.90;;;;;;5101470;28;20028;-64
2023/01/04 12:59:58;;;;;;;3.03;1.05;;;13.00;99.90;;;;;;5107009;28;20023;-64
2023/01/04 13:02:26;;;;;;;4.25;1.25;;;13.00;99.90;;;;;;5124930;27;20027;-64
2023/01/04 13:04:55;;;;;;;4.75;1.48;;;13.00;99.90;;;;;;5100478;28;20012;-64
2023/01/04 13:07:38;;;;;;;2.20;1.30;;;13.00;99.90;;;;;;5103687;28;20097;-64
2023/01/04 13:10:34;;;;;;;3.55;1.08;;;13.10;99.90;;;;;;5110261;28;20020;-64
2023/01/04 13:13:27;;;;;;;2.28;1.10;;;13.20;99.90;;;;;;5097742;28;20031;-63
2023/01/04 13:16:10;;;;;;;2.72;1.30;;;13.20;99.90;;;;;;5095362;28;20024;-64
2023/01/04 13:18:54;;;;;;;2.17;1.20;;;13.20;99.90;;;;;;5098096;28;20484;-63
2023/01/04 13:21:41;;;;;;;2.03;1.25;;;13.20;99.90;;;;;;5103249;28;20016;-64
2023/01/04 13:24:27;;;;;;;4.00;1.90;;;13.30;99.90;;;;;;5081727;28;20103;-64
2023/01/04 13:26:53;;;;;;;3.90;1.50;;;13.30;99.90;;;;;;5110141;28;20117;-64
2023/01/04 13:29:27;;;;;;;4.07;1.40;;;13.20;99.90;;;;;;5103082;27;20034;-64
2023/01/04 13:32:22;;;;;;;3.33;1.20;;;13.20;99.90;;;;;;5081875;28;20077;-64
2023/01/04 13:34:54;;;;;;;5.72;1.45;;;13.30;99.90;;;;;;5090494;28;20377;-64
2023/01/04 13:37:27;;;;;;;2.42;1.42;;;13.20;99.90;;;;;;5107104;28;20501;-64
2023/01/04 13:40:17;;;;;;;2.45;1.42;;;13.20;99.90;;;;;;5078284;28;20028;-64
2023/01/04 13:42:48;;;;;;;3.15;1.30;;;13.20;99.90;;;;;;5108181;28;20106;-64
2023/01/04 13:45:32;;;;;;;3.63;1.40;;;13.20;99.90;;;;;;5107968;28;20024;-64
2023/01/04 13:48:01;;;;;;;4.85;1.00;;;13.20;99.90;;;;;;5107925;28;20517;-64
2023/01/04 13:50:35;;;;;;;4.35;1.38;;;13.20;99.90;;;;;;5078266;28;20024;-64
2023/01/04 13:53:02;;;;;;;3.60;1.42;;;13.20;99.90;;;;;;5107117;28;20134;-65
2023/01/04 13:55:33;;;;;;;4.70;1.20;;;13.20;99.90;;;;;;5085189;28;20017;-64
2023/01/04 13:58:05;;;;;;;6.60;1.52;;;13.30;99.90;;;;;;5105419;28;20020;-64